createdAt,value
2023-05-10T00:00:19.911Z,13.63
2023-05-10T00:00:51.805Z,14.90
2023-05-10T00:01:23.442Z,13.98
2023-05-10T00:01:55.561Z,14.70
2023-05-10T00:02:27.778Z,14.02
2023-05-10T00:02:59.325Z,15.52
2023-05-10T00:03:30.845Z,15.63
2023-05-10T00:04:02.327Z,15.60
2023-05-10T00:04:33.797Z,14.50
2023-05-10T00:05:06.129Z,14.85
2023-05-10T00:05:37.560Z,14.57
2023-05-10T00:06:09.052Z,16.30
2023-05-10T00:06:40.460Z,14.50
2023-05-10T00:07:11.844Z,14.50
2023-05-10T00:07:45.751Z,14.18
2023-05-10T00:08:17.309Z,15.30
2023-05-10T00:08:48.710Z,14.32
2023-05-10T00:09:20.232Z,15.38
2023-05-10T00:09:51.707Z,15.18
2023-05-10T00:10:23.382Z,15.60
2023-05-10T00:10:54.811Z,15.65
2023-05-10T00:11:26.337Z,15.85
2023-05-10T00:11:59.550Z,14.52
2023-05-10T00:12:30.969Z,14.77
2023-05-10T00:13:02.578Z,15.23
2023-05-10T00:13:34.209Z,14.85
2023-05-10T00:14:05.843Z,13.80
2023-05-10T00:14:37.234Z,15.43
2023-05-10T00:15:09.862Z,15.18
2023-05-10T00:15:41.322Z,15.88
2023-05-10T00:16:14.022Z,15.75
2023-05-10T00:16:46.265Z,15.45
2023-05-10T00:17:17.787Z,15.48
2023-05-10T00:17:49.318Z,16.67
2023-05-10T00:18:20.878Z,14.88
2023-05-10T00:18:52.358Z,14.88
2023-05-10T00:19:23.806Z,15.43
2023-05-10T00:19:55.453Z,15.63
2023-05-10T00:20:26.879Z,14.63
2023-05-10T00:20:58.308Z,14.55
2023-05-10T00:21:29.798Z,14.80
2023-05-10T00:22:01.370Z,15.85
2023-05-10T00:22:33.151Z,15.18
2023-05-10T00:23:04.801Z,16.40
2023-05-10T00:23:36.390Z,15.95
2023-05-10T00:24:07.851Z,16.10
2023-05-10T00:24:39.239Z,15.85
2023-05-10T00:25:11.466Z,16.08
2023-05-10T00:25:43.161Z,15.93
2023-05-10T00:26:14.556Z,17.70
2023-05-10T00:26:46.012Z,17.02
2023-05-10T00:27:17.378Z,16.65
2023-05-10T00:27:48.868Z,15.50
2023-05-10T00:28:20.327Z,16.77
2023-05-10T00:28:51.791Z,16.65
2023-05-10T00:29:23.258Z,17.30
2023-05-10T00:29:54.644Z,16.92
2023-05-10T00:30:26.022Z,16.67
2023-05-10T00:30:57.461Z,17.70
2023-05-10T00:31:28.925Z,18.40
2023-05-10T00:32:00.391Z,19.00
2023-05-10T00:32:31.954Z,18.92
2023-05-10T00:33:04.110Z,18.20
2023-05-10T00:33:35.541Z,18.30
2023-05-10T00:34:06.869Z,19.95
2023-05-10T00:34:38.218Z,19.75
2023-05-10T00:35:09.674Z,19.92
2023-05-10T00:35:41.299Z,20.58
2023-05-10T00:36:12.844Z,20.05
2023-05-10T00:36:44.469Z,21.25
2023-05-10T00:37:16.213Z,21.55
2023-05-10T00:37:47.688Z,22.38
2023-05-10T00:38:19.417Z,21.83
2023-05-10T00:38:50.942Z,20.40
2023-05-10T00:39:22.500Z,21.92
2023-05-10T00:39:54.519Z,21.63
2023-05-10T00:40:26.175Z,22.50
2023-05-10T00:40:57.594Z,22.63
2023-05-10T00:41:29.022Z,22.05
2023-05-10T00:42:01.229Z,22.42
2023-05-10T00:42:32.734Z,23.55
2023-05-10T00:43:04.291Z,23.88
2023-05-10T00:43:35.630Z,22.95
2023-05-10T00:44:07.293Z,24.33
2023-05-10T00:44:38.874Z,23.90
2023-05-10T00:45:10.614Z,25.20
2023-05-10T00:45:42.504Z,25.95
2023-05-10T00:46:16.477Z,24.80
2023-05-10T00:46:49.402Z,24.80
2023-05-10T00:47:20.948Z,25.05
2023-05-10T00:47:56.078Z,25.45
2023-05-10T00:48:27.774Z,24.52
2023-05-10T00:48:59.348Z,24.42
2023-05-10T00:49:31.221Z,24.53
2023-05-10T00:50:03.157Z,24.02
2023-05-10T00:50:34.850Z,25.23
2023-05-10T00:51:07.064Z,24.27
2023-05-10T00:51:38.610Z,23.92
2023-05-10T00:52:10.787Z,25.02
2023-05-10T00:52:43.685Z,25.15
2023-05-10T00:53:16.305Z,26.33
2023-05-10T00:53:47.927Z,25.63
2023-05-10T00:54:19.596Z,26.08
2023-05-10T00:54:53.124Z,25.90
2023-05-10T00:55:24.936Z,26.23
2023-05-10T00:55:56.481Z,25.25
2023-05-10T00:56:29.349Z,25.52
2023-05-10T00:57:00.764Z,26.60
2023-05-10T00:57:32.772Z,26.05
2023-05-10T00:58:06.338Z,25.38
2023-05-10T00:58:37.906Z,26.33
2023-05-10T00:59:10.617Z,26.05
2023-05-10T00:59:42.110Z,27.00
2023-05-10T01:00:18.823Z,25.20
2023-05-10T01:00:51.494Z,25.30
2023-05-10T01:01:23.191Z,26.27
2023-05-10T01:01:54.888Z,26.90
2023-05-10T01:02:26.628Z,26.85
2023-05-10T01:02:59.010Z,26.42
2023-05-10T01:03:30.776Z,27.95
2023-05-10T01:04:04.152Z,28.08
2023-05-10T01:04:36.463Z,25.73
2023-05-10T01:05:08.069Z,27.67
2023-05-10T01:05:39.508Z,29.53
2023-05-10T01:06:11.225Z,27.95
2023-05-10T01:06:43.043Z,28.67
2023-05-10T01:07:14.404Z,29.95
2023-05-10T01:07:45.755Z,29.50
2023-05-10T01:08:17.590Z,28.48
2023-05-10T01:08:48.987Z,29.58
2023-05-10T01:09:21.185Z,29.88
2023-05-10T01:09:52.767Z,28.27
2023-05-10T01:10:24.597Z,28.77
2023-05-10T01:10:56.317Z,28.67
2023-05-10T01:11:27.999Z,29.33
2023-05-10T01:12:02.473Z,28.77
2023-05-10T01:12:40.896Z,28.23
2023-05-10T01:13:13.620Z,28.60
2023-05-10T01:13:57.669Z,29.63
2023-05-10T01:14:29.837Z,27.52
2023-05-10T01:15:02.573Z,27.15
2023-05-10T01:15:34.733Z,29.63
2023-05-10T01:16:07.936Z,28.35
2023-05-10T01:16:41.810Z,28.70
2023-05-10T01:17:13.554Z,29.60
2023-05-10T01:17:47.516Z,28.52
2023-05-10T01:18:22.068Z,29.67
2023-05-10T01:18:53.892Z,29.08
2023-05-10T01:19:27.575Z,27.35
2023-05-10T01:19:59.086Z,28.10
2023-05-10T01:20:37.519Z,29.35
2023-05-10T01:21:20.580Z,28.00
2023-05-10T01:22:16.638Z,26.75
2023-05-10T01:23:31.975Z,26.57
2023-05-10T01:24:15.969Z,26.08
2023-05-10T01:25:20.867Z,25.85
2023-05-10T01:26:01.540Z,25.05
2023-05-10T01:26:47.766Z,25.98
2023-05-10T01:27:30.975Z,25.55
2023-05-10T01:28:02.314Z,26.52
2023-05-10T01:28:50.980Z,27.25
2023-05-10T01:30:13.990Z,26.10
2023-05-10T01:31:24.621Z,25.30
2023-05-10T01:32:26.750Z,23.97
2023-05-10T01:33:22.969Z,24.10
2023-05-10T01:34:03.727Z,25.33
2023-05-10T01:34:55.681Z,26.30
2023-05-10T01:35:35.506Z,25.85
2023-05-10T01:36:17.113Z,25.40
2023-05-10T01:37:03.868Z,24.30
2023-05-10T01:37:43.770Z,25.88
2023-05-10T01:38:47.474Z,26.55
2023-05-10T01:39:27.640Z,26.27
2023-05-10T01:40:17.195Z,25.53
2023-05-10T01:41:02.495Z,24.80
2023-05-10T01:41:56.535Z,25.63
2023-05-10T01:42:34.744Z,25.25
2023-05-10T01:43:12.115Z,27.55
2023-05-10T01:44:19.816Z,25.55
2023-05-10T01:44:59.332Z,26.00
2023-05-10T01:45:51.799Z,26.77
2023-05-10T01:46:34.345Z,26.45
2023-05-10T01:47:11.684Z,26.92
2023-05-10T01:47:45.685Z,25.00
2023-05-10T01:48:20.407Z,26.88
2023-05-10T01:48:56.809Z,28.08
2023-05-10T01:49:32.924Z,27.27
2023-05-10T01:50:07.767Z,28.05
2023-05-10T01:50:44.590Z,28.70
2023-05-10T01:51:24.764Z,27.67
2023-05-10T01:52:04.423Z,28.67
2023-05-10T01:52:41.803Z,28.33
2023-05-10T01:53:16.483Z,28.25
2023-05-10T01:53:49.911Z,27.83
2023-05-10T01:54:23.663Z,26.88
2023-05-10T01:55:00.981Z,27.60
2023-05-10T01:55:35.914Z,28.25
2023-05-10T01:56:09.219Z,28.85
2023-05-10T01:56:42.958Z,29.17
2023-05-10T01:57:15.345Z,29.52
2023-05-10T01:57:51.832Z,27.95
2023-05-10T01:58:31.531Z,28.45
2023-05-10T01:59:08.893Z,28.65
2023-05-10T01:59:44.043Z,26.97
2023-05-10T02:00:17.224Z,27.08
2023-05-10T02:00:51.490Z,27.00
2023-05-10T02:01:24.005Z,29.42
2023-05-10T02:01:59.809Z,27.77
2023-05-10T02:02:37.669Z,27.10
2023-05-10T02:03:11.325Z,29.73
2023-05-10T02:03:44.502Z,27.90
2023-05-10T02:04:18.410Z,27.63
2023-05-10T02:04:51.613Z,30.58
2023-05-10T02:05:23.859Z,28.70
2023-05-10T02:05:57.191Z,29.95
2023-05-10T02:06:29.213Z,28.80
2023-05-10T02:07:00.879Z,30.02
2023-05-10T02:07:34.121Z,28.10
2023-05-10T02:08:08.184Z,27.85
2023-05-10T02:08:41.263Z,27.73
2023-05-10T02:09:13.964Z,28.27
2023-05-10T02:09:50.432Z,28.38
2023-05-10T02:10:21.874Z,28.15
2023-05-10T02:10:55.785Z,27.87
2023-05-10T02:11:29.125Z,28.73
2023-05-10T02:12:04.287Z,28.80
2023-05-10T02:12:48.316Z,29.15
2023-05-10T02:13:20.663Z,27.85
2023-05-10T02:13:54.565Z,27.00
2023-05-10T02:14:27.917Z,28.35
2023-05-10T02:15:03.768Z,28.80
2023-05-10T02:15:36.146Z,28.58
2023-05-10T02:16:08.336Z,28.33
2023-05-10T02:16:41.510Z,28.27
2023-05-10T02:17:14.404Z,27.92
2023-05-10T02:17:47.528Z,27.65
2023-05-10T02:18:19.612Z,27.25
2023-05-10T02:18:53.104Z,28.08
2023-05-10T02:19:25.216Z,28.23
2023-05-10T02:19:57.905Z,28.95
2023-05-10T02:20:32.051Z,27.75
2023-05-10T02:21:04.284Z,28.27
2023-05-10T02:21:37.215Z,27.10
2023-05-10T02:22:10.342Z,29.07
2023-05-10T02:22:43.781Z,28.85
2023-05-10T02:23:17.850Z,28.42
2023-05-10T02:23:51.076Z,28.85
2023-05-10T02:24:25.269Z,28.48
2023-05-10T02:25:00.358Z,29.40
2023-05-10T02:25:33.553Z,29.60
2023-05-10T02:26:07.261Z,28.35
2023-05-10T02:26:39.524Z,28.20
2023-05-10T02:27:12.319Z,28.58
2023-05-10T02:27:45.619Z,28.40
2023-05-10T02:28:18.089Z,28.83
2023-05-10T02:28:51.164Z,27.83
2023-05-10T02:29:26.075Z,29.40
2023-05-10T02:29:58.934Z,28.48
2023-05-10T02:30:33.385Z,28.60
2023-05-10T02:31:06.971Z,29.48
2023-05-10T02:31:39.800Z,29.65
2023-05-10T02:32:12.978Z,30.17
2023-05-10T02:32:45.527Z,29.48
2023-05-10T02:33:18.545Z,28.40
2023-05-10T02:33:50.651Z,31.10
2023-05-10T02:34:26.030Z,28.73
2023-05-10T02:34:58.353Z,29.67
2023-05-10T02:35:29.837Z,30.00
2023-05-10T02:36:03.573Z,30.35
2023-05-10T02:36:36.348Z,30.35
2023-05-10T02:37:08.030Z,30.30
2023-05-10T02:37:40.727Z,29.63
2023-05-10T02:38:13.487Z,29.92
2023-05-10T02:38:46.490Z,28.83
2023-05-10T02:39:20.394Z,30.33
2023-05-10T02:39:54.805Z,29.38
2023-05-10T02:40:28.838Z,30.45
2023-05-10T02:41:00.522Z,30.83
2023-05-10T02:41:33.712Z,30.80
2023-05-10T02:42:06.523Z,29.52
2023-05-10T02:42:39.714Z,27.95
2023-05-10T02:43:15.332Z,30.10
2023-05-10T02:43:48.050Z,29.10
2023-05-10T02:44:21.376Z,28.80
2023-05-10T02:44:55.539Z,28.40
2023-05-10T02:45:31.319Z,28.42
2023-05-10T02:46:03.287Z,29.95
2023-05-10T02:46:35.020Z,28.60
2023-05-10T02:47:06.460Z,29.02
2023-05-10T02:47:38.065Z,28.88
2023-05-10T02:48:09.574Z,29.27
2023-05-10T02:48:41.024Z,28.83
2023-05-10T02:49:12.614Z,28.13
2023-05-10T02:49:44.146Z,30.73
2023-05-10T02:50:16.033Z,29.08
2023-05-10T02:50:52.265Z,29.52
2023-05-10T02:51:29.164Z,28.35
2023-05-10T02:52:05.754Z,28.73
2023-05-10T02:52:48.115Z,28.50
2023-05-10T02:53:23.894Z,28.52
2023-05-10T02:53:57.557Z,29.23
2023-05-10T02:54:32.820Z,28.27
2023-05-10T02:55:06.805Z,27.52
2023-05-10T02:55:43.101Z,28.97
2023-05-10T02:56:25.916Z,29.42
2023-05-10T02:57:04.872Z,27.73
2023-05-10T02:57:42.282Z,29.90
2023-05-10T02:58:13.694Z,29.95
2023-05-10T02:58:45.033Z,30.65
2023-05-10T02:59:16.475Z,30.00
2023-05-10T02:59:47.905Z,31.85
2023-05-10T03:00:19.516Z,29.83
2023-05-10T03:00:51.367Z,29.48
2023-05-10T03:01:22.888Z,31.03
2023-05-10T03:01:54.714Z,31.73
2023-05-10T03:02:26.215Z,28.55
2023-05-10T03:02:58.541Z,32.42
2023-05-10T03:03:30.010Z,30.77
2023-05-10T03:04:01.847Z,32.50
2023-05-10T03:04:33.254Z,31.52
2023-05-10T03:05:04.981Z,32.78
2023-05-10T03:05:36.360Z,32.88
2023-05-10T03:06:07.752Z,31.17
2023-05-10T03:06:39.166Z,30.90
2023-05-10T03:07:10.924Z,31.30
2023-05-10T03:07:42.354Z,31.75
2023-05-10T03:08:13.874Z,31.90
2023-05-10T03:08:46.345Z,32.67
2023-05-10T03:09:17.794Z,32.45
2023-05-10T03:09:50.309Z,32.20
2023-05-10T03:10:28.419Z,32.03
2023-05-10T03:11:06.358Z,33.40
2023-05-10T03:12:04.846Z,31.30
2023-05-10T03:12:57.581Z,31.57
2023-05-10T03:13:29.070Z,30.55
2023-05-10T03:14:32.079Z,31.08
2023-05-10T03:15:20.546Z,30.70
2023-05-10T03:16:13.120Z,32.30
2023-05-10T03:16:53.369Z,33.72
2023-05-10T03:17:31.888Z,33.28
2023-05-10T03:18:09.032Z,31.33
2023-05-10T03:18:45.541Z,33.20
2023-05-10T03:19:35.693Z,32.63
2023-05-10T03:20:12.687Z,31.37
2023-05-10T03:20:49.261Z,32.05
2023-05-10T03:21:24.047Z,33.63
2023-05-10T03:22:00.833Z,33.17
2023-05-10T03:22:37.119Z,32.30
2023-05-10T03:23:23.531Z,33.72
2023-05-10T03:24:01.357Z,31.02
2023-05-10T03:24:35.240Z,33.33
2023-05-10T03:25:09.250Z,33.45
2023-05-10T03:25:41.953Z,32.13
2023-05-10T03:26:21.443Z,32.93
2023-05-10T03:26:56.633Z,34.60
2023-05-10T03:27:28.934Z,31.65
2023-05-10T03:28:02.668Z,32.85
2023-05-10T03:28:35.858Z,31.05
2023-05-10T03:29:09.004Z,32.72
2023-05-10T03:29:40.626Z,31.38
2023-05-10T03:30:13.771Z,33.30
2023-05-10T03:30:46.316Z,32.72
2023-05-10T03:31:18.691Z,32.42
2023-05-10T03:31:50.896Z,31.43
2023-05-10T03:32:23.378Z,32.15
2023-05-10T03:32:55.162Z,33.15
2023-05-10T03:33:26.753Z,32.50
2023-05-10T03:33:58.137Z,33.75
2023-05-10T03:34:31.402Z,32.03
2023-05-10T03:35:10.813Z,33.65
2023-05-10T03:35:42.408Z,32.30
2023-05-10T03:36:13.721Z,32.40
2023-05-10T03:36:45.171Z,33.17
2023-05-10T03:37:16.559Z,32.43
2023-05-10T03:37:48.402Z,33.08
2023-05-10T03:38:19.743Z,33.15
2023-05-10T03:38:51.232Z,32.50
2023-05-10T03:39:22.728Z,32.03
2023-05-10T03:39:54.195Z,32.70
2023-05-10T03:40:27.013Z,33.53
2023-05-10T03:40:58.358Z,31.35
2023-05-10T03:41:30.277Z,33.15
2023-05-10T03:42:01.860Z,32.70
2023-05-10T03:42:33.255Z,32.43
2023-05-10T03:43:05.019Z,32.75
2023-05-10T03:43:36.500Z,32.45
2023-05-10T03:44:07.868Z,32.53
2023-05-10T03:44:40.771Z,31.10
2023-05-10T03:45:12.170Z,32.70
2023-05-10T03:45:43.517Z,33.15
2023-05-10T03:46:14.913Z,32.28
2023-05-10T03:46:46.458Z,32.55
2023-05-10T03:47:17.904Z,31.35
2023-05-10T03:47:49.302Z,31.87
2023-05-10T03:48:20.692Z,32.47
2023-05-10T03:48:52.063Z,30.70
2023-05-10T03:49:24.070Z,31.70
2023-05-10T03:49:55.418Z,31.55
2023-05-10T03:50:27.263Z,30.85
2023-05-10T03:50:58.620Z,33.10
2023-05-10T03:51:31.980Z,32.28
2023-05-10T03:52:03.451Z,32.78
2023-05-10T03:52:34.856Z,31.58
2023-05-10T03:53:06.393Z,32.77
2023-05-10T03:53:37.796Z,32.95
2023-05-10T03:54:09.165Z,31.58
2023-05-10T03:54:40.624Z,33.70
2023-05-10T03:55:12.017Z,30.65
2023-05-10T03:55:43.402Z,32.78
2023-05-10T03:56:14.829Z,31.58
2023-05-10T03:56:47.430Z,31.38
2023-05-10T03:57:18.794Z,33.47
2023-05-10T03:57:54.658Z,32.20
2023-05-10T03:58:26.210Z,32.90
2023-05-10T03:58:57.628Z,32.22
2023-05-10T03:59:29.042Z,30.95
2023-05-10T04:00:00.730Z,32.15
2023-05-10T04:00:33.443Z,32.33
2023-05-10T04:01:04.885Z,32.33
2023-05-10T04:01:36.336Z,32.83
2023-05-10T04:02:07.982Z,33.00
2023-05-10T04:02:39.519Z,33.33
2023-05-10T04:03:11.511Z,32.58
2023-05-10T04:03:43.067Z,32.13
2023-05-10T04:04:14.486Z,34.30
2023-05-10T04:04:46.066Z,33.22
2023-05-10T04:05:17.449Z,35.05
2023-05-10T04:05:48.870Z,34.58
2023-05-10T04:06:20.472Z,32.90
2023-05-10T04:06:51.968Z,33.08
2023-05-10T04:07:23.427Z,33.53
2023-05-10T04:07:54.882Z,32.65
2023-05-10T04:08:26.716Z,33.85
2023-05-10T04:09:00.743Z,33.97
2023-05-10T04:09:32.350Z,31.95
2023-05-10T04:10:04.056Z,33.45
2023-05-10T04:10:35.702Z,33.58
2023-05-10T04:11:12.000Z,34.53
2023-05-10T04:11:43.648Z,33.10
2023-05-10T04:12:15.029Z,32.80
2023-05-10T04:12:46.633Z,34.22
2023-05-10T04:13:18.085Z,33.88
2023-05-10T04:13:49.625Z,33.00
2023-05-10T04:14:21.187Z,33.17
2023-05-10T04:14:52.762Z,34.90
2023-05-10T04:15:24.191Z,35.08
2023-05-10T04:15:55.717Z,31.98
2023-05-10T04:16:27.088Z,34.28
2023-05-10T04:16:58.555Z,33.03
2023-05-10T04:17:30.293Z,32.97
2023-05-10T04:18:01.923Z,33.03
2023-05-10T04:18:33.714Z,32.08
2023-05-10T04:19:05.424Z,33.63
2023-05-10T04:19:36.920Z,32.80
2023-05-10T04:20:09.280Z,32.50
2023-05-10T04:20:40.665Z,31.67
2023-05-10T04:21:14.260Z,32.85
2023-05-10T04:21:46.263Z,33.30
2023-05-10T04:22:18.569Z,33.42
2023-05-10T04:22:49.989Z,30.98
2023-05-10T04:23:21.381Z,32.72
2023-05-10T04:23:52.688Z,32.00
2023-05-10T04:24:25.431Z,32.22
2023-05-10T04:24:56.838Z,32.47
2023-05-10T04:25:28.179Z,30.77
2023-05-10T04:26:03.256Z,32.78
2023-05-10T04:26:34.686Z,31.98
2023-05-10T04:27:06.067Z,31.10
2023-05-10T04:27:37.857Z,32.47
2023-05-10T04:28:09.552Z,31.73
2023-05-10T04:28:40.997Z,32.75
2023-05-10T04:29:12.575Z,32.28
2023-05-10T04:29:43.991Z,31.52
2023-05-10T04:30:15.869Z,31.40
2023-05-10T04:30:47.393Z,29.80
2023-05-10T04:31:18.910Z,33.58
2023-05-10T04:31:50.354Z,32.25
2023-05-10T04:32:21.849Z,31.42
2023-05-10T04:32:53.315Z,31.92
2023-05-10T04:33:24.684Z,32.97
2023-05-10T04:33:56.089Z,31.13
2023-05-10T04:34:27.526Z,31.92
2023-05-10T04:34:59.144Z,32.33
2023-05-10T04:35:30.491Z,32.57
2023-05-10T04:36:02.566Z,31.38
2023-05-10T04:36:36.302Z,31.38
2023-05-10T04:37:08.568Z,32.88
2023-05-10T04:37:39.964Z,30.77
2023-05-10T04:38:11.435Z,32.60
2023-05-10T04:38:43.662Z,31.63
2023-05-10T04:39:15.066Z,32.70
2023-05-10T04:39:46.575Z,31.45
2023-05-10T04:40:18.285Z,32.17
2023-05-10T04:40:49.883Z,33.07
2023-05-10T04:41:21.648Z,31.58
2023-05-10T04:41:53.033Z,33.50
2023-05-10T04:42:24.393Z,32.20
2023-05-10T04:42:55.832Z,31.98
2023-05-10T04:43:27.212Z,32.45
2023-05-10T04:43:58.616Z,32.95
2023-05-10T04:44:30.641Z,31.58
2023-05-10T04:45:02.093Z,32.13
2023-05-10T04:45:33.426Z,31.13
2023-05-10T04:46:05.882Z,32.23
2023-05-10T04:46:37.349Z,29.73
2023-05-10T04:47:11.152Z,31.25
2023-05-10T04:47:43.935Z,30.98
2023-05-10T04:48:15.413Z,32.88
2023-05-10T04:48:46.930Z,32.67
2023-05-10T04:49:18.805Z,33.95
2023-05-10T04:49:50.209Z,30.95
2023-05-10T04:50:21.645Z,31.85
2023-05-10T04:50:53.169Z,31.55
2023-05-10T04:51:24.597Z,30.97
2023-05-10T04:51:56.410Z,31.85
2023-05-10T04:52:27.790Z,31.73
2023-05-10T04:52:59.144Z,32.25
2023-05-10T04:53:31.006Z,31.05
2023-05-10T04:54:06.621Z,31.70
2023-05-10T04:54:38.415Z,32.15
2023-05-10T04:55:10.805Z,32.38
2023-05-10T04:55:42.157Z,32.38
2023-05-10T04:56:13.552Z,32.40
2023-05-10T04:56:45.001Z,33.70
2023-05-10T04:57:16.445Z,31.25
2023-05-10T04:57:47.837Z,31.30
2023-05-10T04:58:19.237Z,33.00
2023-05-10T04:58:50.855Z,32.20
2023-05-10T04:59:22.308Z,29.75
2023-05-10T04:59:53.731Z,32.80
2023-05-10T05:00:25.610Z,32.08
2023-05-10T05:00:57.039Z,31.77
2023-05-10T05:01:28.414Z,32.75
2023-05-10T05:01:59.920Z,31.27
2023-05-10T05:02:31.903Z,32.83
2023-05-10T05:03:03.472Z,33.97
2023-05-10T05:03:35.135Z,32.55
2023-05-10T05:04:06.567Z,32.80
2023-05-10T05:04:37.982Z,32.47
2023-05-10T05:05:09.496Z,32.90
2023-05-10T05:05:40.957Z,32.50
2023-05-10T05:06:12.334Z,32.28
2023-05-10T05:06:44.052Z,32.95
2023-05-10T05:07:15.700Z,31.23
2023-05-10T05:07:47.086Z,31.27
2023-05-10T05:08:18.530Z,33.25
2023-05-10T05:08:50.629Z,32.72
2023-05-10T05:09:22.094Z,33.30
2023-05-10T05:09:54.157Z,31.77
2023-05-10T05:10:25.582Z,34.38
2023-05-10T05:10:56.911Z,32.65
2023-05-10T05:11:28.334Z,32.30
2023-05-10T05:11:59.800Z,34.63
2023-05-10T05:12:31.302Z,31.67
2023-05-10T05:13:03.061Z,33.60
2023-05-10T05:13:34.529Z,32.13
2023-05-10T05:14:05.867Z,33.70
2023-05-10T05:14:37.228Z,31.20
2023-05-10T05:15:10.282Z,33.05
2023-05-10T05:15:41.742Z,33.05
2023-05-10T05:16:13.175Z,31.70
2023-05-10T05:16:44.583Z,33.92
2023-05-10T05:17:16.248Z,32.28
2023-05-10T05:17:47.941Z,33.77
2023-05-10T05:18:19.377Z,34.85
2023-05-10T05:18:50.828Z,34.40
2023-05-10T05:19:22.419Z,35.10
2023-05-10T05:19:54.244Z,34.50
2023-05-10T05:20:25.717Z,34.58
2023-05-10T05:20:57.054Z,35.53
2023-05-10T05:21:28.493Z,34.58
2023-05-10T05:21:59.837Z,35.10
2023-05-10T05:22:31.333Z,35.47
2023-05-10T05:23:02.923Z,34.77
2023-05-10T05:23:34.306Z,34.80
2023-05-10T05:24:06.332Z,33.15
2023-05-10T05:24:41.007Z,36.80
2023-05-10T05:25:12.740Z,35.40
2023-05-10T05:25:44.203Z,36.03
2023-05-10T05:26:16.134Z,37.38
2023-05-10T05:26:48.048Z,36.25
2023-05-10T05:27:19.424Z,36.33
2023-05-10T05:27:50.955Z,38.03
2023-05-10T05:28:24.812Z,37.50
2023-05-10T05:28:56.272Z,34.75
2023-05-10T05:29:27.592Z,35.17
2023-05-10T05:29:59.657Z,36.72
2023-05-10T05:30:31.007Z,35.60
2023-05-10T05:31:02.370Z,34.28
2023-05-10T05:31:33.721Z,35.08
2023-05-10T05:32:05.521Z,36.42
2023-05-10T05:32:36.990Z,35.35
2023-05-10T05:33:08.523Z,35.25
2023-05-10T05:33:39.968Z,36.37
2023-05-10T05:34:11.285Z,34.65
2023-05-10T05:34:42.683Z,37.22
2023-05-10T05:35:14.268Z,35.78
2023-05-10T05:35:51.477Z,34.30
2023-05-10T05:36:22.886Z,36.80
2023-05-10T05:36:54.801Z,35.33
2023-05-10T05:37:26.187Z,34.53
2023-05-10T05:37:57.567Z,37.20
2023-05-10T05:38:28.993Z,35.75
2023-05-10T05:39:00.322Z,35.40
2023-05-10T05:39:31.676Z,34.22
2023-05-10T05:40:03.562Z,35.15
2023-05-10T05:40:35.023Z,34.97
2023-05-10T05:41:06.375Z,34.85
2023-05-10T05:41:37.806Z,35.58
2023-05-10T05:42:10.268Z,36.05
2023-05-10T05:42:42.209Z,35.50
2023-05-10T05:43:14.412Z,33.10
2023-05-10T05:43:45.749Z,33.63
2023-05-10T05:44:17.150Z,32.57
2023-05-10T05:44:48.524Z,33.28
2023-05-10T05:45:20.081Z,34.35
2023-05-10T05:45:54.140Z,34.70
2023-05-10T05:46:25.752Z,34.58
2023-05-10T05:46:57.228Z,32.40
2023-05-10T05:47:28.633Z,33.22
2023-05-10T05:48:00.479Z,33.60
2023-05-10T05:48:32.148Z,34.15
2023-05-10T05:49:03.734Z,33.35
2023-05-10T05:49:35.086Z,34.20
2023-05-10T05:50:07.155Z,32.45
2023-05-10T05:50:38.502Z,32.90
2023-05-10T05:51:09.871Z,34.55
2023-05-10T05:51:41.243Z,33.60
2023-05-10T05:52:12.687Z,32.30
2023-05-10T05:52:44.089Z,32.28
2023-05-10T05:53:15.640Z,32.72
2023-05-10T05:53:47.048Z,32.17
2023-05-10T05:54:18.460Z,33.00
2023-05-10T05:54:49.824Z,30.70
2023-05-10T05:55:21.144Z,32.05
2023-05-10T05:55:56.788Z,31.65
2023-05-10T05:56:28.119Z,30.25
2023-05-10T05:57:01.308Z,30.00
2023-05-10T05:57:33.082Z,31.25
2023-05-10T05:58:04.624Z,31.05
2023-05-10T05:58:36.456Z,31.05
2023-05-10T05:59:07.891Z,32.92
2023-05-10T05:59:44.581Z,31.25
2023-05-10T06:00:16.456Z,30.17
2023-05-10T06:00:47.849Z,33.20
2023-05-10T06:01:19.351Z,31.23
2023-05-10T06:01:50.774Z,32.88
2023-05-10T06:02:25.182Z,31.75
2023-05-10T06:02:56.913Z,31.63
2023-05-10T06:03:28.413Z,30.75
2023-05-10T06:03:59.866Z,31.90
2023-05-10T06:04:31.426Z,31.92
2023-05-10T06:05:03.358Z,30.60
2023-05-10T06:05:34.693Z,32.57
2023-05-10T06:06:06.334Z,31.42
2023-05-10T06:06:37.761Z,31.63
2023-05-10T06:07:09.121Z,30.35
2023-05-10T06:07:43.114Z,31.45
2023-05-10T06:08:14.627Z,31.45
2023-05-10T06:08:45.953Z,31.10
2023-05-10T06:09:17.383Z,29.88
2023-05-10T06:09:48.762Z,30.13
2023-05-10T06:10:20.391Z,29.05
2023-05-10T06:10:51.777Z,28.63
2023-05-10T06:11:23.827Z,29.52
2023-05-10T06:11:55.209Z,27.33
2023-05-10T06:12:26.543Z,27.40
2023-05-10T06:12:57.938Z,26.65
2023-05-10T06:13:33.905Z,28.15
2023-05-10T06:14:05.834Z,27.52
2023-05-10T06:14:37.216Z,27.10
2023-05-10T06:15:09.361Z,26.70
2023-05-10T06:15:41.128Z,25.17
2023-05-10T06:16:13.142Z,26.97
2023-05-10T06:16:44.521Z,26.17
2023-05-10T06:17:15.921Z,25.85
2023-05-10T06:17:48.145Z,27.85
2023-05-10T06:18:19.692Z,26.52
2023-05-10T06:18:51.072Z,27.25
2023-05-10T06:19:22.593Z,29.40
2023-05-10T06:19:54.162Z,29.83
2023-05-10T06:20:26.011Z,28.52
2023-05-10T06:20:57.374Z,29.27
2023-05-10T06:21:28.769Z,30.47
2023-05-10T06:22:00.217Z,30.42
2023-05-10T06:22:31.566Z,30.30
2023-05-10T06:23:02.913Z,30.75
2023-05-10T06:23:34.309Z,30.13
2023-05-10T06:24:07.772Z,29.63
2023-05-10T06:24:39.164Z,30.42
2023-05-10T06:25:10.971Z,30.42
2023-05-10T06:25:42.626Z,30.77
2023-05-10T06:26:14.823Z,30.25
2023-05-10T06:26:46.245Z,31.23
2023-05-10T06:27:18.202Z,30.38
2023-05-10T06:27:53.486Z,30.90
2023-05-10T06:28:25.339Z,29.98
2023-05-10T06:28:56.798Z,29.48
2023-05-10T06:29:28.269Z,30.20
2023-05-10T06:30:11.621Z,29.75
2023-05-10T06:30:44.183Z,29.58
2023-05-10T06:31:15.572Z,27.75
2023-05-10T06:31:47.386Z,28.20
2023-05-10T06:32:18.914Z,27.87
2023-05-10T06:32:50.717Z,28.40
2023-05-10T06:33:22.178Z,27.92
2023-05-10T06:33:56.075Z,27.08
2023-05-10T06:34:28.204Z,27.58
2023-05-10T06:34:59.568Z,27.17
2023-05-10T06:35:32.395Z,27.92
2023-05-10T06:36:04.275Z,27.40
2023-05-10T06:36:35.672Z,26.20
2023-05-10T06:37:07.203Z,24.67
2023-05-10T06:37:38.702Z,25.53
2023-05-10T06:38:10.138Z,27.17
2023-05-10T06:38:41.723Z,26.65
2023-05-10T06:39:13.246Z,24.90
2023-05-10T06:39:44.618Z,25.55
2023-05-10T06:40:16.497Z,26.67
2023-05-10T06:40:48.219Z,26.45
2023-05-10T06:41:19.671Z,25.77
2023-05-10T06:41:51.228Z,25.70
2023-05-10T06:42:22.673Z,23.83
2023-05-10T06:42:54.044Z,23.83
2023-05-10T06:43:27.115Z,25.27
2023-05-10T06:43:58.438Z,22.52
2023-05-10T06:44:29.749Z,23.70
2023-05-10T06:45:01.272Z,23.20
2023-05-10T06:45:32.610Z,23.58
2023-05-10T06:46:04.052Z,22.25
2023-05-10T06:46:36.138Z,22.52
2023-05-10T06:47:07.527Z,21.50
2023-05-10T06:47:39.448Z,21.52
2023-05-10T06:48:11.118Z,21.77
2023-05-10T06:48:42.509Z,22.00
2023-05-10T06:49:13.908Z,21.25
2023-05-10T06:49:45.322Z,22.23
2023-05-10T06:50:16.875Z,21.90
2023-05-10T06:50:48.226Z,20.65
2023-05-10T06:51:19.552Z,21.58
2023-05-10T06:51:50.977Z,21.20
2023-05-10T06:52:22.486Z,22.75
2023-05-10T06:52:53.929Z,20.05
2023-05-10T06:53:25.401Z,20.33
2023-05-10T06:53:56.725Z,20.42
2023-05-10T06:54:28.102Z,22.55
2023-05-10T06:54:59.595Z,20.73
2023-05-10T06:55:31.047Z,20.42
2023-05-10T06:56:04.547Z,20.05
2023-05-10T06:56:36.167Z,20.20
2023-05-10T06:57:16.147Z,21.10
2023-05-10T06:57:55.150Z,19.52
2023-05-10T06:58:26.456Z,20.05
2023-05-10T06:58:57.782Z,19.00
2023-05-10T06:59:29.283Z,19.83
2023-05-10T07:00:00.887Z,18.88
2023-05-10T07:00:32.508Z,18.83
2023-05-10T07:01:05.150Z,18.38
2023-05-10T07:01:36.571Z,17.58
2023-05-10T07:02:08.135Z,18.30
2023-05-10T07:02:39.502Z,17.80
2023-05-10T07:03:11.718Z,17.33
2023-05-10T07:03:43.293Z,17.35
2023-05-10T07:04:14.770Z,17.47
2023-05-10T07:04:48.867Z,16.23
2023-05-10T07:05:21.211Z,16.02
2023-05-10T07:05:52.827Z,17.15
2023-05-10T07:06:33.028Z,17.35
2023-05-10T07:07:05.297Z,16.15
2023-05-10T07:07:36.853Z,16.23
2023-05-10T07:08:08.403Z,16.00
2023-05-10T07:08:39.748Z,16.75
2023-05-10T07:09:11.132Z,15.88